Time;durP1;ratioP1;P1;durP2;ratioP2;P2;SDS_P1;SDS_P2;PMS_P1;PMS_P2;Temp;Humidity;BMP_temperature;BMP_pressure;BME280_temperature;BME280_humidity;BME280_pressure;Samples;Min_cycle;Max_cycle;Signal;HPM_P1;HPM_P2
2023/08/23 00:06:28;;;;;;;9.60;8.50;;;;;;;21.46;72.85;98677.70;435447;1255;99211;-43
2023/08/23 00:16:35;;;;;;;11.00;8.90;;;;;;;21.38;73.65;98687.21;435437;1253;111423;-42
2023/08/23 00:26:42;;;;;;;12.30;10.60;;;;;;;21.38;73.80;98694.65;435473;1253;107537;-42
2023/08/23 00:36:49;;;;;;;13.90;10.70;;;;;;;21.31;74.27;98688.77;435162;1261;365595;-42
2023/08/23 01:07:05;;;;;;;11.80;10.60;;;;;;;21.23;75.19;98688.52;436261;1246;110454;-42
2023/08/23 01:37:27;;;;;;;22.10;12.30;;;;;;;20.91;76.25;98696.28;435275;1253;108477;-42
2023/08/23 01:47:34;;;;;;;18.20;12.90;;;;;;;20.75;76.62;98699.83;435322;1254;99250;-44
2023/08/23 01:57:41;;;;;;;17.30;13.40;;;;;;;20.55;76.87;98698.65;435402;1254;110260;-42
2023/08/23 02:07:49;;;;;;;17.00;12.10;;;;;;;20.35;77.17;98708.23;435280;1254;109289;-42
2023/08/23 02:17:55;;;;;;;18.40;13.20;;;;;;;20.14;77.70;98713.08;435373;1253;99212;-43
2023/08/23 02:28:00;;;;;;;16.10;12.00;;;;;;;20.03;78.02;98702.40;435477;1254;108576;-41
2023/08/23 02:38:08;;;;;;;17.70;12.70;;;;;;;19.82;78.38;98704.27;435265;1253;99332;-41
2023/08/23 02:48:15;;;;;;;17.50;11.10;;;;;;;19.71;78.78;98701.32;435313;1254;112435;-41
2023/08/23 02:58:22;;;;;;;15.10;11.90;;;;;;;19.65;78.94;98704.77;435183;1254;108249;-41
2023/08/23 03:08:29;;;;;;;15.00;11.80;;;;;;;19.51;79.23;98695.89;435160;1249;99237;-42
2023/08/23 03:18:36;;;;;;;17.90;13.70;;;;;;;19.53;79.78;98714.81;435182;1255;108426;-43
2023/08/23 03:28:43;;;;;;;25.60;15.70;;;;;;;19.50;79.99;98724.29;435387;1254;99241;-43
2023/08/23 03:38:50;;;;;;;13.80;12.40;;;;;;;19.36;80.49;98727.11;435571;1249;112087;-42
2023/08/23 03:48:56;;;;;;;16.30;13.10;;;;;;;19.12;81.18;98738.33;435474;1254;107356;-43
2023/08/23 03:59:03;;;;;;;18.10;11.90;;;;;;;19.04;81.36;98747.30;435146;1250;99271;-43
2023/08/23 04:09:09;;;;;;;15.30;10.50;;;;;;;18.93;81.23;98755.21;435217;1253;109514;-43
2023/08/23 04:19:16;;;;;;;11.60;9.80;;;;;;;18.87;81.55;98761.42;435386;1254;99288;-42
2023/08/23 04:49:35;;;;;;;11.60;7.60;;;;;;;18.89;80.94;98779.41;435334;1253;99420;-45
2023/08/23 04:59:42;;;;;;;8.50;7.50;;;;;;;19.34;80.98;98787.73;435251;1253;108256;-43
2023/08/23 05:09:49;;;;;;;13.10;6.70;;;;;;;20.34;80.55;98783.95;435312;1254;98138;-44
2023/08/23 05:19:56;;;;;;;15.90;7.50;;;;;;;21.23;79.32;98791.77;435310;1254;112722;-44
2023/08/23 05:30:04;;;;;;;8.10;6.20;;;;;;;21.94;78.01;98796.13;435182;1254;108582;-43
2023/08/23 05:40:12;;;;;;;10.80;6.80;;;;;;;22.52;76.41;98800.79;435479;1254;99051;-43
2023/08/23 05:50:19;;;;;;;9.40;5.20;;;;;;;22.74;74.73;98800.36;435247;1255;107624;-42
2023/08/23 06:00:25;;;;;;;8.20;5.50;;;;;;;22.70;73.21;98810.75;435353;1249;99228;-41
2023/08/23 06:10:32;;;;;;;11.20;4.50;;;;;;;23.47;72.92;98815.42;435214;1249;111861;-42
2023/08/23 06:30:46;;;;;;;6.50;4.00;;;;;;;23.81;69.95;98820.88;435279;1253;97919;-42
2023/08/23 06:40:53;;;;;;;8.10;4.90;;;;;;;23.98;68.66;98824.83;435336;1256;107445;-42
2023/08/23 06:50:59;;;;;;;;;;;;;;;23.18;68.49;98838.01;435412;1255;99215;-41
2023/08/23 07:01:14;;;;;;;6.10;4.20;;;;;;;23.97;69.11;98843.19;435387;1253;111234;-42
2023/08/23 07:11:21;;;;;;;6.50;3.50;;;;;;;24.59;67.79;98850.10;435259;1254;106988;-42
2023/08/23 07:21:26;;;;;;;7.80;3.80;;;;;;;24.71;66.04;98859.38;435242;1249;98003;-42
2023/08/23 07:41:39;;;;;;;6.00;3.90;;;;;;;24.44;65.51;98859.60;435308;1249;98497;-41
2023/08/23 08:01:51;;;;;;;5.90;4.10;;;;;;;24.94;65.36;98868.92;435137;1255;108529;-41
2023/08/23 08:11:59;;;;;;;7.00;5.10;;;;;;;25.32;64.81;98871.07;435333;1256;99327;-41
2023/08/23 08:22:06;;;;;;;7.40;4.90;;;;;;;25.78;64.40;98879.58;435805;1255;108535;-48
2023/08/23 08:32:12;;;;;;;6.50;5.70;;;;;;;25.85;63.73;98884.27;435325;1250;98447;-43
2023/08/23 08:52:25;;;;;;;9.10;5.80;;;;;;;25.42;62.68;98897.27;435264;1255;108417;-42
2023/08/23 09:02:34;;;;;;;7.60;5.40;;;;;;;25.74;62.39;98900.00;435527;1253;99224;-43
2023/08/23 09:32:57;;;;;;;11.60;7.30;;;;;;;26.07;60.85;98890.52;435381;1253;110794;-43
2023/08/23 09:43:04;;;;;;;8.00;5.80;;;;;;;26.05;60.71;98901.85;435319;1250;108495;-43
2023/08/23 09:53:10;;;;;;;8.00;6.00;;;;;;;26.45;59.80;98903.76;435396;1251;99209;-42
2023/08/23 10:03:17;;;;;;;7.60;5.60;;;;;;;26.24;58.72;98895.02;435474;1253;107635;-41
2023/08/23 10:13:24;;;;;;;5.70;5.10;;;;;;;26.01;59.01;98892.30;435218;1254;98609;-42
2023/08/23 10:23:33;;;;;;;;;;;;;;;26.68;59.12;98888.91;435503;1253;110606;-41
2023/08/23 10:43:49;;;;;;;9.40;5.90;;;;;;;26.36;57.60;98880.47;435528;1251;99246;-42
2023/08/23 10:53:56;;;;;;;6.90;6.00;;;;;;;25.76;56.62;98875.02;435421;1254;107597;-42
2023/08/23 11:04:02;;;;;;;;;;;;;;;26.12;55.91;98867.73;435553;1253;99243;-42
2023/08/23 11:14:08;;;;;;;;;;;;;;;26.35;56.02;98860.11;435292;1253;112838;-43
2023/08/23 11:24:16;;;;;;;5.00;4.10;;;;;;;26.62;54.68;98856.64;435260;1251;106845;-42
2023/08/23 11:34:20;;;;;;;7.60;4.40;;;;;;;26.78;53.51;98863.44;435318;1253;99224;-41
2023/08/23 12:04:46;;;;;;;5.40;2.80;;;;;;;26.69;50.81;98863.77;435537;1251;112344;-41
2023/08/23 12:14:52;;;;;;;4.10;2.80;;;;;;;26.65;50.43;98859.59;435421;1251;108768;-42
2023/08/23 12:25:00;;;;;;;4.20;3.00;;;;;;;26.94;50.10;98854.40;435550;1253;99274;-41
2023/08/23 12:35:07;;;;;;;6.30;2.80;;;;;;;26.72;48.28;98852.03;435178;1254;311529;-41
2023/08/23 12:55:21;;;;;;;7.30;3.20;;;;;;;26.67;47.28;98838.13;435495;1251;111620;-41
2023/08/23 13:15:35;;;;;;;4.10;2.20;;;;;;;26.42;45.55;98826.10;435335;1251;99229;-42
2023/08/23 13:25:42;;;;;;;5.60;2.10;;;;;;;26.41;43.81;98822.67;435400;1263;107289;-41
2023/08/23 13:35:48;;;;;;;1.60;1.40;;;;;;;26.43;43.05;98824.45;435558;1251;99231;-42
2023/08/23 13:45:54;;;;;;;3.20;1.20;;;;;;;26.47;41.66;98821.70;435528;1254;111617;-41
2023/08/23 13:56:01;;;;;;;2.30;1.40;;;;;;;26.40;40.44;98820.38;435465;1263;107448;-42
2023/08/23 14:06:08;;;;;;;2.70;2.30;;;;;;;26.39;40.58;98811.27;435429;1251;99227;-42
2023/08/23 14:16:15;;;;;;;5.80;2.20;;;;;;;26.29;40.74;98812.34;435263;1253;109177;-42
2023/08/23 14:26:21;;;;;;;1.90;1.50;;;;;;;26.30;40.95;98812.94;435210;1249;99317;-41
2023/08/23 14:56:39;;;;;;;4.00;1.50;;;;;;;26.24;39.82;98811.05;435456;1253;99190;-43
2023/08/23 15:16:54;;;;;;;3.40;1.40;;;;;;;26.13;39.20;98803.66;435268;1256;99320;-42
2023/08/23 15:37:06;;;;;;;2.70;0.90;;;;;;;25.92;38.93;98808.41;435434;1249;107578;-42
2023/08/23 15:47:13;;;;;;;2.70;1.60;;;;;;;25.68;38.81;98808.13;435319;1251;99238;-44
2023/08/23 15:57:21;;;;;;;4.10;1.30;;;;;;;25.32;39.34;98803.51;435339;1253;108678;-43
2023/08/23 16:17:33;;;;;;;4.70;1.50;;;;;;;25.19;39.91;98794.81;435372;1255;111130;-43
2023/08/23 16:27:44;;;;;;;6.40;2.00;;;;;;;25.05;39.96;98798.17;435361;1251;109317;-42
2023/08/23 16:37:50;;;;;;;;;;;;;;;24.89;40.46;98799.48;435475;1254;99246;-43
2023/08/23 16:47:57;;;;;;;3.70;2.50;;;;;;;24.65;41.29;98803.64;435160;1249;109416;-42
2023/08/23 17:08:07;;;;;;;4.20;1.90;;;;;;;24.17;42.94;98806.80;435457;1253;110938;-43
2023/08/23 17:18:14;;;;;;;7.60;2.50;;;;;;;23.84;43.59;98814.64;435334;1250;107105;-45
2023/08/23 17:28:20;;;;;;;;;;;;;;;23.49;44.61;98811.60;435337;1253;99193;-43
2023/08/23 17:38:27;;;;;;;8.80;2.10;;;;;;;23.13;45.82;98822.72;435294;1253;109107;-43
2023/08/23 17:48:34;;;;;;;6.10;2.90;;;;;;;22.69;47.07;98828.88;435380;1254;98012;-45
2023/08/23 17:58:41;;;;;;;7.20;2.70;;;;;;;22.08;48.12;98837.43;435753;1254;111910;-43
2023/08/23 18:08:49;;;;;;;6.60;3.10;;;;;;;21.44;49.51;98840.95;435618;1250;107024;-42
2023/08/23 18:18:55;;;;;;;13.50;5.50;;;;;;;20.95;50.75;98854.73;435485;1250;97972;-43
2023/08/23 18:29:03;;;;;;;16.30;5.60;;;;;;;20.54;51.91;98863.44;435560;1249;108491;-42
2023/08/23 18:39:08;;;;;;;18.50;6.10;;;;;;;20.15;52.83;98877.64;435341;1249;99205;-44
2023/08/23 19:09:27;;;;;;;21.00;6.90;;;;;;;19.52;55.69;98896.01;435389;1249;98044;-42
2023/08/23 19:29:39;;;;;;;25.10;10.70;;;;;;;19.06;56.76;98901.55;435531;1250;99100;-42
2023/08/23 19:39:49;;;;;;;15.70;7.20;;;;;;;18.83;57.42;98903.98;435362;1255;111331;-43
2023/08/23 20:00:00;;;;;;;16.50;8.00;;;;;;;18.53;58.88;98910.02;435709;1249;99104;-41
2023/08/23 20:10:06;;;;;;;13.50;8.10;;;;;;;18.39;59.65;98911.65;435431;1249;107817;-42
2023/08/23 20:40:26;;;;;;;11.90;6.90;;;;;;;17.98;61.25;98910.66;436969;1253;107991;-41
2023/08/23 21:00:38;;;;;;;9.70;6.80;;;;;;;17.96;62.62;98898.62;435504;1253;110603;-42
2023/08/23 21:20:51;;;;;;;10.00;6.80;;;;;;;18.04;63.14;98894.81;435604;1250;110490;-41
2023/08/23 22:01:18;;;;;;;6.60;4.30;;;;;;;18.01;64.02;98885.02;435664;1249;99205;-41
2023/08/23 22:11:24;;;;;;;9.20;4.60;;;;;;;17.92;63.77;98883.48;435598;1251;112016;-42
2023/08/23 22:31:37;;;;;;;4.80;3.90;;;;;;;17.86;64.15;98883.88;436125;1250;99215;-41
2023/08/23 22:41:45;;;;;;;8.30;5.40;;;;;;;17.87;64.16;98883.23;435672;1253;108428;-43
2023/08/23 22:51:52;;;;;;;14.60;7.00;;;;;;;17.73;64.21;98873.40;435733;1253;98859;-44
2023/08/23 23:02:00;;;;;;;8.60;5.90;;;;;;;17.60;64.35;98877.04;435470;1253;111742;-42
2023/08/23 23:22:12;;;;;;;13.00;6.60;;;;;;;17.42;64.81;98878.06;435619;1250;99234;-43
2023/08/23 23:32:19;;;;;;;10.40;7.40;;;;;;;17.22;65.10;98871.38;436270;1248;108587;-43
2023/08/23 23:42:27;;;;;;;12.20;7.00;;;;;;;17.14;65.33;98873.46;435776;1253;99237;-43
2023/08/23 23:52:33;;;;;;;9.70;6.40;;;;;;;17.05;65.49;98881.52;435520;1254;111392;-43
